Observation data for Sundown on 12/08/2018      Previous  Date       Current Mesonet Observations  Soil Data  Daily Summary Page  Observations in Plain Language
KSDS 080600Z 03005KT M00/M01 A3026 RMK A01 T10011006  RH  098%=      5-min Rain = 0
KSDS 080605Z 02006KT M00/M01 A3026 RMK A01 T10011006  RH  098%=      5-min Rain = 0
KSDS 080610Z 03007KT M00/M01 A3026 RMK A01 T10021007  RH  098%=      5-min Rain = 0
KSDS 080615Z 02006KT M00/M01 A3026 RMK A01 T10021007  RH  098%=      5-min Rain = 0
KSDS 080620Z 02005KT M00/M01 A3026 RMK A01 T10011006  RH  098%=      5-min Rain = 0
KSDS 080625Z 03005KT M00/M01 A3026 RMK A01 T10011006  RH  098%=      5-min Rain = 0
KSDS 080630Z 02006KT M00/M01 A3026 RMK A01 T10021007  RH  098%=      5-min Rain = 0
KSDS 080635Z 03008KT M00/M01 A3026 RMK A01 T10031008  RH  098%=      5-min Rain = 0
KSDS 080640Z 03007KT M00/M01 A3026 RMK A01 T10031008  RH  098%=      5-min Rain = 0
KSDS 080645Z 02007KT M00/M01 A3026 RMK A01 T10031008  RH  098%=      5-min Rain = 0
KSDS 080650Z 02006KT M00/M01 A3025 RMK A01 T10031008  RH  098%=      5-min Rain = 0
KSDS 080655Z 01006KT M00/M01 A3025 RMK A01 T10031008  RH  098%=      5-min Rain = 0
KSDS 080700Z 01007KT M00/M01 A3025 RMK A01 T10031008  RH  098%=      5-min Rain = 0
KSDS 080705Z 01007KT M00/M01 A3025 RMK A01 T10031008  RH  098%=      5-min Rain = 0
KSDS 080710Z 01006KT M00/M01 A3025 RMK A01 T10031008  RH  098%=      5-min Rain = 0
KSDS 080715Z 01006KT M00/M01 A3025 RMK A01 T10041008  RH  098%=      5-min Rain = 0
KSDS 080720Z 01009KT M00/M01 A3025 RMK A01 T10041009  RH  098%=      5-min Rain = 0
KSDS 080725Z 01007KT M01/M01 A3025 RMK A01 T10051009  RH  098%=      5-min Rain = 0
KSDS 080730Z 01008KT M01/M01 A3025 RMK A01 T10051009  RH  098%=      5-min Rain = 0
KSDS 080735Z 01009KT M01/M01 A3024 RMK A01 T10051010  RH  098%=      5-min Rain = 0
KSDS 080740Z 02008KT M01/M01 A3024 RMK A01 T10061010  RH  098%=      5-min Rain = 0
KSDS 080745Z 02008KT M01/M01 A3024 RMK A01 T10061010  RH  098%=      5-min Rain = 0
KSDS 080750Z 01008KT M01/M01 A3024 RMK A01 T10061010  RH  098%=      5-min Rain = 0
KSDS 080755Z 01008KT M01/M01 A3024 RMK A01 T10061010  RH  098%=      5-min Rain = 0
KSDS 080800Z 01008KT M01/M01 A3024 RMK A01 T10061010  RH  098%=      5-min Rain = 0
KSDS 080805Z 01009KT M01/M01 A3024 RMK A01 T10071010  RH  098%=      5-min Rain = 0
KSDS 080810Z 01008KT M01/M01 A3024 RMK A01 T10071010  RH  098%=      5-min Rain = 0
KSDS 080815Z 01008KT M01/M01 A3023 RMK A01 T10071010  RH  098%=      5-min Rain = 0
KSDS 080820Z 01009KT M01/M01 A3023 RMK A01 T10071010  RH  098%=      5-min Rain = 0
KSDS 080825Z 01010KT M01/M01 A3023 RMK A01 T10071011  RH  098%=      5-min Rain = 0
KSDS 080830Z 01010KT M01/M01 A3023 RMK A01 T10071011  RH  098%=      5-min Rain = 0
KSDS 080835Z 02011KT M01/M01 A3023 RMK A01 T10081011  RH  099%=      5-min Rain = 0
KSDS 080840Z 02010KT M01/M01 A3023 RMK A01 T10081011  RH  099%=      5-min Rain = 0
KSDS 080845Z 02010KT M01/M01 A3022 RMK A01 T10081011  RH  099%=      5-min Rain = 0
KSDS 080850Z 02011KT M01/M01 A3022 RMK A01 T10081011  RH  099%=      5-min Rain = 0
KSDS 080855Z 02010KT M01/M01 A3022 RMK A01 T10081011  RH  099%=      5-min Rain = 0
KSDS 080900Z 02012G17KT M01/M01 A3022 RMK A01 T10081012  RH  099%=      5-min Rain = 0
KSDS 080905Z 02012KT M01/M01 A3022 RMK A01 T10091012  RH  099%=      5-min Rain = 0
KSDS 080910Z 02011KT M01/M01 A3022 RMK A01 T10091012  RH  099%=      5-min Rain = 0
KSDS 080915Z 02010KT M01/M01 A3022 RMK A01 T10091012  RH  099%=      5-min Rain = 0
KSDS 080920Z 02011G16KT M01/M01 A3022 RMK A01 T10101013  RH  099%=      5-min Rain = 0
KSDS 080925Z 02012KT M01/M01 A3022 RMK A01 T10101013  RH  099%=      5-min Rain = 0
KSDS 080930Z 02011KT M01/M01 A3022 RMK A01 T10101013  RH  099%=      5-min Rain = 0
KSDS 080935Z 02012KT M01/M01 A3021 RMK A01 T10111014  RH  099%=      5-min Rain = 0
KSDS 080940Z 01011KT M01/M01 A3021 RMK A01 T10111014  RH  099%=      5-min Rain = 0
KSDS 080945Z 02013KT M01/M01 A3021 RMK A01 T10111014  RH  099%=      5-min Rain = 0
KSDS 080950Z 02011KT M01/M01 A3021 RMK A01 T10111014  RH  099%=      5-min Rain = 0
KSDS 080955Z 02010KT M01/M01 A3021 RMK A01 T10111014  RH  099%=      5-min Rain = 0
KSDS 081000Z 01009KT M01/M01 A3021 RMK A01 T10111014  RH  099%=      5-min Rain = 0
KSDS 081005Z 01009KT M01/M01 A3022 RMK A01 T10111014  RH  099%=      5-min Rain = 0
KSDS 081010Z 01008KT M01/M01 A3022 RMK A01 T10111014  RH  099%=      5-min Rain = 0
KSDS 081015Z 01008KT M01/M01 A3022 RMK A01 T10111014  RH  099%=      5-min Rain = 0
KSDS 081020Z 01008KT M01/M01 A3022 RMK A01 T10111014  RH  099%=      5-min Rain = 0
KSDS 081025Z 00007KT M01/M01 A3022 RMK A01 T10111014  RH  099%=      5-min Rain = 0
KSDS 081030Z 36006KT M01/M01 A3023 RMK A01 T10111014  RH  099%=      5-min Rain = 0
KSDS 081035Z 00007KT M01/M01 A3023 RMK A01 T10111014  RH  099%=      5-min Rain = 0
KSDS 081040Z 00007KT M01/M01 A3023 RMK A01 T10111014  RH  099%=      5-min Rain = 0
KSDS 081045Z 00007KT M01/M01 A3022 RMK A01 T10111014  RH  099%=      5-min Rain = 0
KSDS 081050Z 00008KT M01/M01 A3023 RMK A01 T10111014  RH  099%=      5-min Rain = 0
KSDS 081055Z 00007KT M01/M01 A3023 RMK A01 T10111014  RH  099%=      5-min Rain = 0
KSDS 081100Z 00007KT M01/M01 A3023 RMK A01 T10111014  RH  099%=      5-min Rain = 0
KSDS 081105Z 00007KT M01/M01 A3023 RMK A01 T10111014  RH  099%=      5-min Rain = 0
KSDS 081110Z 00007KT M01/M01 A3023 RMK A01 T10111014  RH  099%=      5-min Rain = 0
KSDS 081115Z 36006KT M01/M01 A3023 RMK A01 T10111014  RH  099%=      5-min Rain = 0
KSDS 081120Z 36006KT M01/M01 A3023 RMK A01 T10111014  RH  099%=      5-min Rain = 0
KSDS 081125Z 36007KT M01/M01 A3023 RMK A01 T10111014  RH  099%=      5-min Rain = 0
KSDS 081130Z 36007KT M01/M01 A3023 RMK A01 T10111014  RH  099%=      5-min Rain = 0
KSDS 081135Z 36007KT M01/M01 A3023 RMK A01 T10111013  RH  099%=      5-min Rain = 0
KSDS 081140Z 36007KT M01/M01 A3023 RMK A01 T10101013  RH  099%=      5-min Rain = 0
KSDS 081145Z 36007KT M01/M01 A3023 RMK A01 T10101013  RH  099%=      5-min Rain = 0
KSDS 081150Z 36007KT M01/M01 A3024 RMK A01 T10101013  RH  099%=      5-min Rain = 0
KSDS 081155Z 36007KT M01/M01 A3024 RMK A01 T10101013  RH  099%=      5-min Rain = 0
KSDS 081200Z 36007KT M01/M01 A3024 RMK A01 T10101013  RH  099%=      5-min Rain = 0
KSDS 081205Z 36008KT M01/M01 A3024 RMK A01 T10101013  RH  099%=      5-min Rain = 0
KSDS 081210Z 36007KT M01/M01 A3024 RMK A01 T10101013  RH  099%=      5-min Rain = 0
KSDS 081215Z 35007KT M01/M01 A3024 RMK A01 T10101013  RH  099%=      5-min Rain = 0
KSDS 081220Z 36007KT M01/M01 A3025 RMK A01 T10101013  RH  099%=      5-min Rain = 0
KSDS 081225Z 36007KT M01/M01 A3025 RMK A01 T10101013  RH  099%=      5-min Rain = 0
KSDS 081230Z 36007KT M01/M01 A3025 RMK A01 T10101013  RH  099%=      5-min Rain = 0
KSDS 081235Z 36007KT M01/M01 A3025 RMK A01 T10101013  RH  099%=      5-min Rain = 0
KSDS 081240Z 36007KT M01/M01 A3025 RMK A01 T10101013  RH  099%=      5-min Rain = 0
KSDS 081245Z 00007KT M01/M01 A3025 RMK A01 T10101013  RH  099%=      5-min Rain = 0
KSDS 081250Z 00007KT M01/M01 A3025 RMK A01 T10101013  RH  099%=      5-min Rain = 0
KSDS 081255Z 00006KT M01/M01 A3025 RMK A01 T10101013  RH  099%=      5-min Rain = 0
KSDS 081300Z 00007KT M01/M01 A3025 RMK A01 T10101013  RH  099%=      5-min Rain = 0
KSDS 081305Z 00006KT M01/M01 A3025 RMK A01 T10101013  RH  099%=      5-min Rain = 0
KSDS 081310Z 00007KT M01/M01 A3026 RMK A01 T10101012  RH  099%=      5-min Rain = 0
KSDS 081315Z 00007KT M01/M01 A3026 RMK A01 T10101012  RH  099%=      5-min Rain = 0
KSDS 081320Z 00007KT M01/M01 A3026 RMK A01 T10091012  RH  099%=      5-min Rain = 0
KSDS 081325Z 00007KT M01/M01 A3026 RMK A01 T10091012  RH  099%=      5-min Rain = 0
KSDS 081330Z 00007KT M01/M01 A3026 RMK A01 T10091012  RH  099%=      5-min Rain = 0
KSDS 081335Z 00007KT M01/M01 A3027 RMK A01 T10091011  RH  099%=      5-min Rain = 0
KSDS 081340Z 00006KT M01/M01 A3027 RMK A01 T10091011  RH  099%=      5-min Rain = 0
KSDS 081345Z 36007KT M01/M01 A3027 RMK A01 T10081011  RH  099%=      5-min Rain = 0
KSDS 081350Z 36007KT M01/M01 A3027 RMK A01 T10081011  RH  099%=      5-min Rain = 0
KSDS 081355Z 36006KT M01/M01 A3027 RMK A01 T10081011  RH  099%=      5-min Rain = 0
KSDS 081400Z 35006KT M01/M01 A3027 RMK A01 T10081010  RH  099%=      5-min Rain = 0
KSDS 081405Z 35007KT M01/M01 A3028 RMK A01 T10081010  RH  099%=      5-min Rain = 0
KSDS 081410Z 35007KT M01/M01 A3028 RMK A01 T10081010  RH  099%=      5-min Rain = 0
KSDS 081415Z 36007KT M01/M01 A3028 RMK A01 T10081010  RH  099%=      5-min Rain = 0
KSDS 081420Z 36007KT M01/M01 A3028 RMK A01 T10071010  RH  099%=      5-min Rain = 0
KSDS 081425Z 36007KT M01/M01 A3028 RMK A01 T10071009  RH  099%=      5-min Rain = 0
KSDS 081430Z 36006KT M01/M01 A3029 RMK A01 T10071009  RH  099%=      5-min Rain = 0
KSDS 081435Z 35005KT M01/M01 A3029 RMK A01 T10071009  RH  099%=      5-min Rain = 0
KSDS 081440Z 36006KT M01/M01 A3029 RMK A01 T10061009  RH  099%=      5-min Rain = 0
KSDS 081445Z 35008KT M01/M01 A3029 RMK A01 T10061009  RH  099%=      5-min Rain = 0
KSDS 081450Z 35007KT M01/M01 A3029 RMK A01 T10061009  RH  099%=      5-min Rain = 0
KSDS 081455Z 36007KT M01/M01 A3029 RMK A01 T10061008  RH  099%=      5-min Rain = 0
KSDS 081500Z 36007KT M01/M01 A3029 RMK A01 T10061008  RH  099%=      5-min Rain = 0
KSDS 081505Z 00006KT M01/M01 A3029 RMK A01 T10051007  RH  099%=      5-min Rain = 0
KSDS 081510Z 01006KT M01/M01 A3029 RMK A01 T10051007  RH  099%=      5-min Rain = 0
KSDS 081515Z 00006KT M00/M01 A303 RMK A01 T10041006  RH  099%=      5-min Rain = 0
KSDS 081520Z 36006KT M00/M01 A303 RMK A01 T10041006  RH  099%=      5-min Rain = 0
KSDS 081525Z 00006KT M00/M01 A303 RMK A01 T10031005  RH  099%=      5-min Rain = 0
KSDS 081530Z 36006KT M00/M01 A303 RMK A01 T10031005  RH  099%=      5-min Rain = 0
KSDS 081535Z 00006KT M00/M01 A303 RMK A01 T10031005  RH  100%=      5-min Rain = 0
KSDS 081540Z 01008KT M00/M01 A303 RMK A01 T10031005  RH  100%=      5-min Rain = 0
KSDS 081545Z 01007KT M00/M01 A303 RMK A01 T10031005  RH  100%=      5-min Rain = 0
KSDS 081550Z 00006KT M00/M00 A303 RMK A01 T10021004  RH  100%=      5-min Rain = 0
KSDS 081555Z 00006KT M00/M00 A303 RMK A01 T10021004  RH  100%=      5-min Rain = 0
KSDS 081600Z 00007KT M00/M00 A303 RMK A01 T10021004  RH  100%=      5-min Rain = 0
KSDS 081605Z 00007KT M00/M00 A3031 RMK A01 T10021004  RH  100%=      5-min Rain = 0
KSDS 081610Z 00006KT M00/M00 A3031 RMK A01 T10021004  RH  100%=      5-min Rain = 0
KSDS 081615Z 36006KT M00/M00 A3031 RMK A01 T10011003  RH  100%=      5-min Rain = 0
KSDS 081620Z 36006KT M00/M00 A3031 RMK A01 T10011003  RH  100%=      5-min Rain = 0
KSDS 081625Z 00006KT M00/M00 A3031 RMK A01 T10011003  RH  100%=      5-min Rain = 0
KSDS 081630Z 36006KT M00/M00 A3031 RMK A01 T10011003  RH  100%=      5-min Rain = 0
KSDS 081635Z 35006KT 00/00 A3031 RMK A01 T00-000-3  RH  100%=      5-min Rain = 0
KSDS 081640Z 36006KT 00/00 A3031 RMK A01 T00-000-2  RH  100%=      5-min Rain = 0
KSDS 081645Z 36005KT 00/00 A3032 RMK A01 T00-000-2  RH  100%=      5-min Rain = 0
KSDS 081650Z 36006KT 00/00 A3032 RMK A01 T000000-2  RH  100%=      5-min Rain = 0
KSDS 081655Z 36005KT 00/00 A3032 RMK A01 T000000-2  RH  100%=      5-min Rain = 0
KSDS 081700Z 35005KT 00/M00 A3032 RMK A01 T00011001  RH  100%=      5-min Rain = 0
KSDS 081705Z 01005KT 00/M00 A3032 RMK A01 T00011001  RH  100%=      5-min Rain = 0
KSDS 081710Z 01006KT 00/M00 A3031 RMK A01 T00011001  RH  100%=      5-min Rain = 0
KSDS 081715Z 01006KT 00/M00 A3031 RMK A01 T00021001  RH  100%=      5-min Rain = 0
KSDS 081720Z 01006KT 00/00 A3031 RMK A01 T000200-0  RH  100%=      5-min Rain = 0
KSDS 081725Z 01005KT 00/00 A3031 RMK A01 T00020000  RH  100%=      5-min Rain = 0
KSDS 081730Z 01006KT 00/00 A3031 RMK A01 T00030001  RH  100%=      5-min Rain = 0
KSDS 081735Z 01006KT 00/00 A3031 RMK A01 T00040001  RH  100%=      5-min Rain = 0.01
KSDS 081740Z 01006KT 01/00 A3031 RMK A01 T00060003  RH  099%=      5-min Rain = 0
KSDS 081745Z 01006KT 01/01 A303 RMK A01 T00070005  RH  099%=      5-min Rain = 0
KSDS 081750Z 01006KT 01/01 A303 RMK A01 T00070005  RH  100%=      5-min Rain = 0
KSDS 081755Z 02005KT 01/01 A303 RMK A01 T00080005  RH  100%=      5-min Rain = 0
KSDS 081800Z 01005KT 01/01 A303 RMK A01 T00100007  RH  100%=      5-min Rain = 0
KSDS 081805Z 00005KT 01/01 A303 RMK A01 T00110009  RH  100%=      5-min Rain = 0
KSDS 081810Z 00005KT 01/01 A303 RMK A01 T00090007  RH  100%=      5-min Rain = 0.01
KSDS 081815Z 00004KT 01/01 A303 RMK A01 T00090006  RH  100%=      5-min Rain = 0.01
KSDS 081820Z 35005KT 01/01 A3029 RMK A01 T00070005  RH  100%=      5-min Rain = 0
KSDS 081825Z 00004KT 01/01 A3029 RMK A01 T00080005  RH  100%=      5-min Rain = 0
KSDS 081830Z 35004KT 01/01 A3029 RMK A01 T00070005  RH  100%=      5-min Rain = 0.02
KSDS 081835Z 35004KT 01/00 A3029 RMK A01 T00050002  RH  100%=      5-min Rain = 0
KSDS 081840Z 35004KT 01/00 A3028 RMK A01 T00060004  RH  100%=      5-min Rain = 0.02
KSDS 081845Z 35005KT 01/00 A3028 RMK A01 T00050003  RH  100%=      5-min Rain = 0
KSDS 081850Z 01004KT 01/00 A3028 RMK A01 T00050003  RH  100%=      5-min Rain = 0.02
KSDS 081855Z 01004KT 01/00 A3027 RMK A01 T00060004  RH  100%=      5-min Rain = 0
KSDS 081900Z 01004KT 01/00 A3027 RMK A01 T00060004  RH  100%=      5-min Rain = 0.01
KSDS 081905Z 34004KT 00/00 A3027 RMK A01 T00040002  RH  100%=      5-min Rain = 0.01
KSDS 081910Z 34004KT 00/00 A3027 RMK A01 T00030001  RH  100%=      5-min Rain = 0.02
KSDS 081915Z 32004KT 00/00 A3027 RMK A01 T00030001  RH  100%=      5-min Rain = 0
KSDS 081920Z 33004KT 00/00 A3027 RMK A01 T00030001  RH  100%=      5-min Rain = 0.02
KSDS 081925Z 33004KT 00/00 A3027 RMK A01 T00020001  RH  100%=      5-min Rain = 0
KSDS 081930Z 33004KT 00/00 A3026 RMK A01 T00030001  RH  100%=      5-min Rain = 0.02
KSDS 081935Z 32005KT 00/00 A3026 RMK A01 T00030001  RH  100%=      5-min Rain = 0
KSDS 081940Z 32005KT 00/00 A3026 RMK A01 T00020000  RH  100%=      5-min Rain = 0.02
KSDS 081945Z 34005KT 00/00 A3026 RMK A01 T00030001  RH  100%=      5-min Rain = 0.02
KSDS 081950Z 33005KT 00/00 A3026 RMK A01 T00030001  RH  100%=      5-min Rain = 0.02
KSDS 081955Z 32005KT 00/00 A3025 RMK A01 T00030001  RH  100%=      5-min Rain = 0.02
KSDS 082000Z 32004KT 00/00 A3025 RMK A01 T00030002  RH  100%=      5-min Rain = 0.01
KSDS 082005Z 33005KT 00/00 A3025 RMK A01 T00040002  RH  100%=      5-min Rain = 0.03
KSDS 082010Z 34005KT 01/00 A3025 RMK A01 T00050003  RH  100%=      5-min Rain = 0.02
KSDS 082015Z 33005KT 01/00 A3025 RMK A01 T00050003  RH  100%=      5-min Rain = 0.02
KSDS 082020Z 34004KT 01/01 A3024 RMK A01 T00080006  RH  100%=      5-min Rain = 0.02
KSDS 082025Z 34005KT 01/01 A3024 RMK A01 T00070005  RH  100%=      5-min Rain = 0.03
KSDS 082030Z 34004KT 01/00 A3024 RMK A01 T00060004  RH  100%=      5-min Rain = 0.03
KSDS 082035Z 33004KT 01/01 A3024 RMK A01 T00080006  RH  100%=      5-min Rain = 0.02
KSDS 082040Z 33004KT 01/01 A3024 RMK A01 T00100007  RH  100%=      5-min Rain = 0.02
KSDS 082045Z 34004KT 01/01 A3024 RMK A01 T00120009  RH  100%=      5-min Rain = 0.02
KSDS 082050Z 34005KT 01/01 A3024 RMK A01 T00120009  RH  099%=      5-min Rain = 0.03
KSDS 082055Z 34004KT 01/01 A3024 RMK A01 T00130007  RH  097%=      5-min Rain = 0.02
KSDS 082100Z 33004KT 02/00 A3024 RMK A01 T00150003  RH  093%=      5-min Rain = 0.03
KSDS 082105Z 32005KT 02/M00 A3024 RMK A01 T00171001  RH  089%=      5-min Rain = 0.02
KSDS 082110Z 33004KT 02/M01 A3024 RMK A01 T00191005  RH  085%=      5-min Rain = 0.02
KSDS 082115Z 33005KT 02/M01 A3024 RMK A01 T00191007  RH  083%=      5-min Rain = 0.01
KSDS 082120Z 33005KT 02/M01 A3024 RMK A01 T00171010  RH  083%=      5-min Rain = 0.01
KSDS 082125Z 34005KT 02/M01 A3024 RMK A01 T00191010  RH  082%=      5-min Rain = 0.01
KSDS 082130Z 33005KT 02/M01 A3024 RMK A01 T00191010  RH  082%=      5-min Rain = 0.01
KSDS 082135Z 34004KT 02/M01 A3023 RMK A01 T00181011  RH  082%=      5-min Rain = 0
KSDS 082140Z 34004KT 02/M01 A3023 RMK A01 T00191011  RH  081%=      5-min Rain = 0.01
KSDS 082145Z 34003KT 02/M01 A3023 RMK A01 T00211012  RH  080%=      5-min Rain = 0.01
KSDS 082150Z 35003KT 02/M01 A3023 RMK A01 T00231010  RH  080%=      5-min Rain = 0.02
KSDS 082155Z 34004KT 02/M01 A3023 RMK A01 T00211013  RH  079%=      5-min Rain = 0.02
KSDS 082200Z 34002KT 02/M01 A3023 RMK A01 T00231011  RH  079%=      5-min Rain = 0.01
KSDS 082205Z 33003KT 02/M01 A3023 RMK A01 T00231012  RH  078%=      5-min Rain = 0
KSDS 082210Z 33003KT 02/M01 A3024 RMK A01 T00231012  RH  079%=      5-min Rain = 0
KSDS 082215Z 35002KT 02/M01 A3023 RMK A01 T00231012  RH  078%=      5-min Rain = 0.01
KSDS 082220Z 34002KT 03/M01 A3023 RMK A01 T00251012  RH  077%=      5-min Rain = 0
KSDS 082225Z 33003KT 02/M01 A3023 RMK A01 T00221014  RH  078%=      5-min Rain = 0
KSDS 082230Z 33002KT 02/M01 A3023 RMK A01 T00211014  RH  078%=      5-min Rain = 0
KSDS 082235Z 34003KT 02/M01 A3023 RMK A01 T00221012  RH  079%=      5-min Rain = 0.01
KSDS 082240Z 34002KT 02/M01 A3023 RMK A01 T00211013  RH  079%=      5-min Rain = 0
KSDS 082245Z 33002KT 02/M01 A3023 RMK A01 T00221013  RH  079%=      5-min Rain = 0
KSDS 082250Z 34002KT 02/M01 A3023 RMK A01 T00211013  RH  079%=      5-min Rain = 0
KSDS 082255Z 36002KT 02/M01 A3023 RMK A01 T00211013  RH  079%=      5-min Rain = 0
KSDS 082300Z 35002KT 02/M01 A3023 RMK A01 T00211014  RH  079%=      5-min Rain = 0.01
KSDS 082305Z 34001KT 02/M01 A3023 RMK A01 T00201014  RH  079%=      5-min Rain = 0
KSDS 082310Z 35002KT 02/M01 A3023 RMK A01 T00191014  RH  079%=      5-min Rain = 0
KSDS 082315Z 34002KT 02/M02 A3023 RMK A01 T00181015  RH  080%=      5-min Rain = 0
KSDS 082320Z 34002KT 02/M02 A3023 RMK A01 T00161015  RH  081%=      5-min Rain = 0
KSDS 082325Z 35002KT 01/M02 A3023 RMK A01 T00141016  RH  081%=      5-min Rain = 0
KSDS 082330Z 35002KT 01/M02 A3023 RMK A01 T00121016  RH  082%=      5-min Rain = 0
KSDS 082335Z 34002KT 01/M02 A3023 RMK A01 T00091016  RH  084%=      5-min Rain = 0
KSDS 082340Z 34002KT 01/M02 A3023 RMK A01 T00071016  RH  085%=      5-min Rain = 0
KSDS 082345Z 36002KT 00/M02 A3023 RMK A01 T00041017  RH  086%=      5-min Rain = 0
KSDS 082350Z 02001KT 00/M02 A3023 RMK A01 T00031017  RH  087%=      5-min Rain = 0
KSDS 082355Z 02000KT 00/M02 A3023 RMK A01 T00031016  RH  088%=      5-min Rain = 0
KSDS 090000Z 02000KT 00/M02 A3023 RMK A01 T00021017  RH  088%=      5-min Rain = 0
KSDS 090005Z 00000KT 00/M02 A3023 RMK A01 T00011017  RH  088%=      5-min Rain = 0
KSDS 090010Z 00000KT 00/02 A3024 RMK A01 T00-00-18  RH  089%=      5-min Rain = 0
KSDS 090015Z 06000KT M00/M02 A3024 RMK A01 T10031020  RH  089%=      5-min Rain = 0
KSDS 090020Z 06001KT M00/M02 A3024 RMK A01 T10031018  RH  091%=      5-min Rain = 0
KSDS 090025Z 07001KT M00/M02 A3024 RMK A01 T10011017  RH  090%=      5-min Rain = 0
KSDS 090030Z 09002KT 00/02 A3024 RMK A01 T00000-17  RH  089%=      5-min Rain = 0
KSDS 090035Z 11004KT M01/M02 A3024 RMK A01 T10071023  RH  090%=      5-min Rain = 0
KSDS 090040Z 11003KT M01/M03 A3024 RMK A01 T10141026  RH  092%=      5-min Rain = 0
KSDS 090045Z 11004KT M02/M03 A3024 RMK A01 T10161026  RH  093%=      5-min Rain = 0
KSDS 090050Z 11004KT M02/M02 A3024 RMK A01 T10151024  RH  094%=      5-min Rain = 0
KSDS 090055Z 11004KT M02/M02 A3024 RMK A01 T10151024  RH  094%=      5-min Rain = 0
KSDS 090100Z 11003KT M02/M02 A3024 RMK A01 T10151023  RH  095%=      5-min Rain = 0
KSDS 090105Z 11004KT M02/M02 A3024 RMK A01 T10151023  RH  095%=      5-min Rain = 0
KSDS 090110Z 12004KT M02/M02 A3025 RMK A01 T10151022  RH  095%=      5-min Rain = 0
KSDS 090115Z 12004KT M02/M02 A3025 RMK A01 T10161024  RH  095%=      5-min Rain = 0
KSDS 090120Z 12004KT M02/M03 A3025 RMK A01 T10191027  RH  095%=      5-min Rain = 0
KSDS 090125Z 14004KT M02/M03 A3025 RMK A01 T10231030  RH  096%=      5-min Rain = 0
KSDS 090130Z 13005KT M03/M03 A3025 RMK A01 T10261032  RH  096%=      5-min Rain = 0
KSDS 090135Z 13005KT M03/M03 A3025 RMK A01 T10271032  RH  097%=      5-min Rain = 0
KSDS 090140Z 14005KT M03/M03 A3025 RMK A01 T10281033  RH  097%=      5-min Rain = 0
KSDS 090145Z 14005KT M03/M03 A3026 RMK A01 T10301034  RH  097%=      5-min Rain = 0
KSDS 090150Z 14005KT M03/M04 A3026 RMK A01 T10321036  RH  097%=      5-min Rain = 0
KSDS 090155Z 14006KT M03/M04 A3026 RMK A01 T10321037  RH  098%=      5-min Rain = 0
KSDS 090200Z 13006KT M03/M04 A3026 RMK A01 T10321036  RH  098%=      5-min Rain = 0
KSDS 090205Z 13006KT M03/M03 A3026 RMK A01 T10311034  RH  098%=      5-min Rain = 0
KSDS 090210Z 14006KT M03/M04 A3027 RMK A01 T10331037  RH  098%=      5-min Rain = 0
KSDS 090215Z 16005KT M04/M04 A3027 RMK A01 T10411044  RH  098%=      5-min Rain = 0
KSDS 090220Z 17005KT M04/M05 A3027 RMK A01 T10421045  RH  098%=      5-min Rain = 0
KSDS 090225Z 16005KT M04/M05 A3027 RMK A01 T10411045  RH  098%=      5-min Rain = 0
KSDS 090230Z 16005KT M04/M04 A3027 RMK A01 T10401043  RH  098%=      5-min Rain = 0
KSDS 090235Z 16005KT M04/M04 A3027 RMK A01 T10401043  RH  098%=      5-min Rain = 0
KSDS 090240Z 17005KT M04/M05 A3028 RMK A01 T10421045  RH  098%=      5-min Rain = 0
KSDS 090245Z 17005KT M04/M05 A3028 RMK A01 T10441047  RH  098%=      5-min Rain = 0
KSDS 090250Z 17005KT M05/M05 A3028 RMK A01 T10451048  RH  098%=      5-min Rain = 0
KSDS 090255Z 20005KT M05/M05 A3028 RMK A01 T10491052  RH  098%=      5-min Rain = 0
KSDS 090300Z 22006KT M05/M06 A3028 RMK A01 T10531056  RH  098%=      5-min Rain = 0
KSDS 090305Z 21005KT M06/M06 A3028 RMK A01 T10551058  RH  098%=      5-min Rain = 0
KSDS 090310Z 21004KT M05/M06 A3028 RMK A01 T10541058  RH  097%=      5-min Rain = 0
KSDS 090315Z 22004KT M05/M06 A3028 RMK A01 T10531057  RH  097%=      5-min Rain = 0
KSDS 090320Z 22004KT M05/M06 A3028 RMK A01 T10531058  RH  097%=      5-min Rain = 0
KSDS 090325Z 23004KT M06/M06 A3028 RMK A01 T10561061  RH  096%=      5-min Rain = 0
KSDS 090330Z 23004KT M06/M06 A3028 RMK A01 T10571063  RH  096%=      5-min Rain = 0
KSDS 090335Z 22003KT M06/M06 A3029 RMK A01 T10571063  RH  096%=      5-min Rain = 0
KSDS 090340Z 21003KT M06/M06 A3028 RMK A01 T10561062  RH  096%=      5-min Rain = 0
KSDS 090345Z 22004KT M06/M06 A3028 RMK A01 T10561062  RH  096%=      5-min Rain = 0
KSDS 090350Z 22004KT M06/M06 A3028 RMK A01 T10571063  RH  095%=      5-min Rain = 0
KSDS 090355Z 23003KT M06/M06 A3028 RMK A01 T10571064  RH  095%=      5-min Rain = 0
KSDS 090400Z 23004KT M06/M07 A3028 RMK A01 T10591066  RH  095%=      5-min Rain = 0
KSDS 090405Z 23004KT M06/M07 A3028 RMK A01 T10611067  RH  095%=      5-min Rain = 0
KSDS 090410Z 23004KT M06/M07 A3028 RMK A01 T10601067  RH  095%=      5-min Rain = 0
KSDS 090415Z 23003KT M06/M07 A3029 RMK A01 T10631071  RH  095%=      5-min Rain = 0
KSDS 090420Z 23003KT M07/M07 A3029 RMK A01 T10651072  RH  094%=      5-min Rain = 0
KSDS 090425Z 23003KT M07/M08 A3029 RMK A01 T10681076  RH  094%=      5-min Rain = 0
KSDS 090430Z 22001KT M07/M08 A3028 RMK A01 T10701078  RH  094%=      5-min Rain = 0
KSDS 090435Z 22000KT M07/M08 A3028 RMK A01 T10711079  RH  094%=      5-min Rain = 0
KSDS 090440Z 22000KT M07/M08 A3029 RMK A01 T10711079  RH  094%=      5-min Rain = 0
KSDS 090445Z 00000KT M07/M08 A3029 RMK A01 T10701078  RH  094%=      5-min Rain = 0
KSDS 090450Z 27000KT M07/M08 A3029 RMK A01 T10711079  RH  094%=      5-min Rain = 0
KSDS 090455Z 28001KT M07/M08 A3029 RMK A01 T10731081  RH  094%=      5-min Rain = 0
KSDS 090500Z 28001KT M07/M08 A3029 RMK A01 T10731081  RH  094%=      5-min Rain = 0
KSDS 090505Z 31001KT M08/M08 A3029 RMK A01 T10751083  RH  094%=      5-min Rain = 0
KSDS 090510Z 31001KT M08/M09 A3029 RMK A01 T10771085  RH  094%=      5-min Rain = 0
KSDS 090515Z 29002KT M08/M09 A3029 RMK A01 T10771085  RH  094%=      5-min Rain = 0
KSDS 090520Z 30002KT M08/M09 A3029 RMK A01 T10771085  RH  094%=      5-min Rain = 0
KSDS 090525Z 31001KT M08/M09 A3029 RMK A01 T10771085  RH  094%=      5-min Rain = 0
KSDS 090530Z 30002KT M08/M09 A3029 RMK A01 T10781086  RH  094%=      5-min Rain = 0
KSDS 090535Z 29002KT M08/M09 A3029 RMK A01 T10781086  RH  094%=      5-min Rain = 0
KSDS 090540Z 29002KT M08/M09 A3029 RMK A01 T10781086  RH  093%=      5-min Rain = 0
KSDS 090545Z 27003KT M08/M09 A3029 RMK A01 T10781087  RH  093%=      5-min Rain = 0
KSDS 090550Z 27003KT M08/M09 A3029 RMK A01 T10781087  RH  093%=      5-min Rain = 0
KSDS 090555Z 27004KT M08/M09 A3029 RMK A01 T10791089  RH  093%=      5-min Rain = 0

Page generated in 0.009 seconds.